createdAt,value
2023-04-22T00:00:58.789Z,12.00
2023-04-22T00:03:28.863Z,11.90
2023-04-22T00:05:57.577Z,11.80
2023-04-22T00:08:26.497Z,11.80
2023-04-22T00:10:54.863Z,11.80
2023-04-22T00:13:24.481Z,11.80
2023-04-22T00:15:52.802Z,11.80
2023-04-22T00:18:21.868Z,11.70
2023-04-22T00:20:50.183Z,11.70
2023-04-22T00:23:19.095Z,11.70
2023-04-22T00:25:47.367Z,11.60
2023-04-22T00:28:15.645Z,11.60
2023-04-22T00:30:45.326Z,11.60
2023-04-22T00:33:13.848Z,11.60
2023-04-22T00:35:42.293Z,11.60
2023-04-22T00:38:10.546Z,11.60
2023-04-22T00:40:39.586Z,11.60
2023-04-22T00:43:09.805Z,11.60
2023-04-22T00:45:38.751Z,11.50
2023-04-22T00:48:09.670Z,11.60
2023-04-22T00:50:38.170Z,11.60
2023-04-22T00:53:06.489Z,11.60
2023-04-22T00:55:35.541Z,11.50
2023-04-22T00:58:05.638Z,11.50
2023-04-22T01:00:34.078Z,11.40
2023-04-22T01:03:04.345Z,11.40
2023-04-22T01:05:35.731Z,11.50
2023-04-22T01:08:04.429Z,11.50
2023-04-22T01:10:32.743Z,11.50
2023-04-22T01:13:01.727Z,11.40
2023-04-22T01:15:30.679Z,11.40
2023-04-22T01:18:00.617Z,11.40
2023-04-22T01:20:30.458Z,11.40
2023-04-22T01:23:05.072Z,11.40
2023-04-22T01:25:35.049Z,11.40
2023-04-22T01:28:04.703Z,11.30
2023-04-22T01:30:34.053Z,11.40
2023-04-22T01:33:02.753Z,11.30
2023-04-22T01:35:36.694Z,11.30
2023-04-22T01:38:05.920Z,11.20
2023-04-22T01:40:36.286Z,11.30
2023-04-22T01:43:04.840Z,11.30
2023-04-22T01:45:35.060Z,11.20
2023-04-22T01:48:03.508Z,11.20
2023-04-22T01:50:31.922Z,11.20
2023-04-22T01:53:00.929Z,11.20
2023-04-22T01:55:29.454Z,11.10
2023-04-22T01:57:59.073Z,11.10
2023-04-22T02:00:27.428Z,11.10
2023-04-22T02:02:55.848Z,11.10
2023-04-22T02:05:27.863Z,11.10
2023-04-22T02:07:56.307Z,11.10
2023-04-22T02:10:24.654Z,11.10
2023-04-22T02:12:53.037Z,11.10
2023-04-22T02:15:23.414Z,11.00
2023-04-22T02:17:54.701Z,11.00
2023-04-22T02:20:23.188Z,11.10
2023-04-22T02:22:52.053Z,11.00
2023-04-22T02:25:21.501Z,11.00
2023-04-22T02:27:51.587Z,11.10
2023-04-22T02:30:21.720Z,11.00
2023-04-22T02:32:50.057Z,11.00
2023-04-22T02:35:18.473Z,11.00
2023-04-22T02:37:46.706Z,11.00
2023-04-22T02:40:15.115Z,11.00
2023-04-22T02:42:43.358Z,11.00
2023-04-22T02:45:12.560Z,11.00
2023-04-22T02:47:42.534Z,11.00
2023-04-22T02:50:12.309Z,11.10
2023-04-22T02:52:40.581Z,11.00
2023-04-22T02:55:10.767Z,11.10
2023-04-22T02:57:39.156Z,11.10
2023-04-22T03:00:10.222Z,11.10
2023-04-22T03:02:39.233Z,11.20
2023-04-22T03:05:15.916Z,11.20
2023-04-22T03:07:44.529Z,11.20
2023-04-22T03:10:13.193Z,11.20
2023-04-22T03:12:42.691Z,11.20
2023-04-22T03:15:12.189Z,11.10
2023-04-22T03:17:40.886Z,11.10
2023-04-22T03:20:15.104Z,11.10
2023-04-22T03:22:43.992Z,11.00
2023-04-22T03:25:14.409Z,11.00
2023-04-22T03:27:47.215Z,11.10
2023-04-22T03:30:15.870Z,11.00
2023-04-22T03:32:44.732Z,11.00
2023-04-22T03:35:22.684Z,11.00
2023-04-22T03:37:52.833Z,11.00
2023-04-22T03:40:27.522Z,11.00
2023-04-22T03:42:56.931Z,11.00
2023-04-22T03:45:25.846Z,11.00
2023-04-22T03:48:08.155Z,10.90
2023-04-22T03:50:43.961Z,10.90
2023-04-22T03:53:12.571Z,10.80
2023-04-22T03:55:41.362Z,10.70
2023-04-22T03:58:09.739Z,10.80
2023-04-22T04:00:38.138Z,10.80
2023-04-22T04:03:15.813Z,10.80
2023-04-22T04:05:46.740Z,10.80
2023-04-22T04:08:15.826Z,10.80
2023-04-22T04:10:45.094Z,10.80
2023-04-22T04:13:14.951Z,10.70
2023-04-22T04:16:01.448Z,10.70
2023-04-22T04:18:32.688Z,10.70
2023-04-22T04:21:04.135Z,10.70
2023-04-22T04:23:34.591Z,10.70
2023-04-22T04:26:05.779Z,10.80
2023-04-22T04:28:37.289Z,10.80
2023-04-22T04:31:06.296Z,10.80
2023-04-22T04:33:37.046Z,10.90
2023-04-22T04:36:08.757Z,10.90
2023-04-22T04:38:37.238Z,10.90
2023-04-22T04:41:05.757Z,10.90
2023-04-22T04:43:35.236Z,10.90
2023-04-22T04:46:17.780Z,11.00
2023-04-22T04:48:48.710Z,11.00
2023-04-22T04:51:20.363Z,11.10
2023-04-22T04:53:56.422Z,11.10
2023-04-22T04:56:27.246Z,11.10
2023-04-22T04:58:56.354Z,11.20
2023-04-22T05:01:26.995Z,11.20
2023-04-22T05:03:58.307Z,11.20
2023-04-22T05:06:28.434Z,11.30
2023-04-22T05:09:02.211Z,11.40
2023-04-22T05:11:30.703Z,11.40
2023-04-22T05:14:01.276Z,11.50
2023-04-22T05:16:36.356Z,11.50
2023-04-22T05:19:05.620Z,11.50
2023-04-22T05:21:36.179Z,11.60
2023-04-22T05:24:05.960Z,11.70
2023-04-22T05:26:34.309Z,11.80
2023-04-22T05:29:06.856Z,11.80
2023-04-22T05:31:35.152Z,11.80
2023-04-22T05:34:03.499Z,11.90
2023-04-22T05:36:32.845Z,12.00
2023-04-22T05:39:02.930Z,12.00
2023-04-22T05:41:33.134Z,12.10
2023-04-22T05:44:02.056Z,12.20
2023-04-22T05:46:31.918Z,12.20
2023-04-22T05:49:00.812Z,12.40
2023-04-22T05:51:49.264Z,12.50
2023-04-22T05:54:21.249Z,12.60
2023-04-22T05:56:49.755Z,12.60
2023-04-22T05:59:19.619Z,12.70
2023-04-22T06:01:49.953Z,12.80
2023-04-22T06:04:21.413Z,12.90
2023-04-22T06:06:50.976Z,13.00
2023-04-22T06:09:20.724Z,13.00
2023-04-22T06:11:49.462Z,13.10
2023-04-22T06:14:17.752Z,13.20
2023-04-22T06:16:47.661Z,13.20
2023-04-22T06:19:16.032Z,13.30
2023-04-22T06:21:44.463Z,13.40
2023-04-22T06:24:12.706Z,13.50
2023-04-22T06:26:45.347Z,13.60
2023-04-22T06:29:13.864Z,13.60
2023-04-22T06:31:42.649Z,13.60
2023-04-22T06:34:11.043Z,13.60
2023-04-22T06:36:39.807Z,13.60
2023-04-22T06:39:10.923Z,13.70
2023-04-22T06:41:46.032Z,13.70
2023-04-22T06:44:32.704Z,13.80
2023-04-22T06:47:16.417Z,13.80
2023-04-22T06:49:50.411Z,13.90
2023-04-22T06:52:36.262Z,14.00
2023-04-22T06:55:05.326Z,14.20
2023-04-22T06:57:35.425Z,14.20
2023-04-22T07:00:04.444Z,14.30
2023-04-22T07:02:33.224Z,14.40
2023-04-22T07:05:01.651Z,14.40
2023-04-22T07:07:30.716Z,14.50
2023-04-22T07:09:59.094Z,14.50
2023-04-22T07:12:34.640Z,14.60
2023-04-22T07:15:02.890Z,14.70
2023-04-22T07:17:31.068Z,14.80
2023-04-22T07:19:59.349Z,14.80
2023-04-22T07:22:27.624Z,14.90
2023-04-22T07:24:56.226Z,14.90
2023-04-22T07:27:24.487Z,14.90
2023-04-22T07:29:54.037Z,14.90
2023-04-22T07:32:22.514Z,15.00
2023-04-22T07:34:50.728Z,15.00
2023-04-22T07:37:18.992Z,15.10
2023-04-22T07:39:47.164Z,15.20
2023-04-22T07:42:15.600Z,15.20
2023-04-22T07:44:43.902Z,15.30
2023-04-22T07:47:13.578Z,15.40
2023-04-22T07:49:43.343Z,15.40
2023-04-22T07:52:11.604Z,15.40
2023-04-22T07:54:39.794Z,15.40
2023-04-22T07:57:08.031Z,15.40
2023-04-22T07:59:36.319Z,15.50
2023-04-22T08:02:04.671Z,15.50
2023-04-22T08:04:34.564Z,15.50
2023-04-22T08:07:17.178Z,15.60
2023-04-22T08:09:52.133Z,15.60
2023-04-22T08:12:20.465Z,15.60
2023-04-22T08:14:48.668Z,15.60
2023-04-22T08:17:17.095Z,15.60
2023-04-22T08:19:46.745Z,15.80
2023-04-22T08:22:15.003Z,15.80
2023-04-22T08:24:43.233Z,15.90
2023-04-22T08:27:11.929Z,16.00
2023-04-22T08:29:40.406Z,16.10
2023-04-22T08:32:09.035Z,16.30
2023-04-22T08:34:37.300Z,16.40
2023-04-22T08:37:06.856Z,16.60
2023-04-22T08:39:35.342Z,16.70
2023-04-22T08:42:04.143Z,16.80
2023-04-22T08:44:32.696Z,17.00
2023-04-22T08:47:03.058Z,17.10
2023-04-22T08:49:32.247Z,17.10
2023-04-22T08:52:00.517Z,17.20
2023-04-22T08:54:30.131Z,17.10
2023-04-22T08:57:00.125Z,17.10
2023-04-22T08:59:29.248Z,17.00
2023-04-22T09:01:59.741Z,17.10
2023-04-22T09:04:28.152Z,17.30
2023-04-22T09:06:57.252Z,17.50
2023-04-22T09:09:25.828Z,17.70
2023-04-22T09:11:55.395Z,17.90
2023-04-22T09:14:24.894Z,17.90
2023-04-22T09:16:53.238Z,17.90
2023-04-22T09:19:26.180Z,17.90
2023-04-22T09:21:54.646Z,18.00
2023-04-22T09:24:23.267Z,18.10
2023-04-22T09:26:51.700Z,18.20
2023-04-22T09:29:21.421Z,18.30
2023-04-22T09:31:50.656Z,18.40
2023-04-22T09:34:18.927Z,18.50
2023-04-22T09:36:48.473Z,18.60
2023-04-22T09:39:16.727Z,18.80
2023-04-22T09:41:44.998Z,18.90
2023-04-22T09:44:18.075Z,18.90
2023-04-22T09:46:51.231Z,18.90
2023-04-22T09:49:19.589Z,19.00
2023-04-22T09:51:49.767Z,19.10
2023-04-22T09:54:18.218Z,19.20
2023-04-22T09:56:51.787Z,19.20
2023-04-22T09:59:23.194Z,19.30
2023-04-22T10:01:55.869Z,19.40
2023-04-22T10:04:25.558Z,19.50
2023-04-22T10:06:54.884Z,19.60
2023-04-22T10:09:25.010Z,19.70
2023-04-22T10:11:55.842Z,19.70
2023-04-22T10:14:24.761Z,19.80
2023-04-22T10:16:59.948Z,19.90
2023-04-22T10:19:29.832Z,19.90
2023-04-22T10:22:03.386Z,20.00
2023-04-22T10:24:37.910Z,20.10
2023-04-22T10:27:08.350Z,20.20
2023-04-22T10:29:39.594Z,20.20
2023-04-22T10:32:27.689Z,20.20
2023-04-22T10:35:11.781Z,20.30
2023-04-22T10:37:44.539Z,20.30
2023-04-22T10:40:17.241Z,20.30
2023-04-22T10:42:51.649Z,20.40
2023-04-22T10:45:25.004Z,20.50
2023-04-22T10:47:54.828Z,20.60
2023-04-22T10:50:26.877Z,20.70
2023-04-22T10:52:58.482Z,20.70
2023-04-22T10:55:51.704Z,20.80
2023-04-22T10:58:21.813Z,20.80
2023-04-22T11:00:54.498Z,20.80
2023-04-22T11:03:30.707Z,20.80
2023-04-22T11:06:18.680Z,20.80
2023-04-22T11:08:48.518Z,20.90
2023-04-22T11:11:19.338Z,21.00
2023-04-22T11:13:51.773Z,21.00
2023-04-22T11:16:23.289Z,21.10
2023-04-22T11:18:53.492Z,21.20
2023-04-22T11:21:22.673Z,21.20
2023-04-22T11:23:52.731Z,21.30
2023-04-22T11:26:34.700Z,21.30
2023-04-22T11:29:03.078Z,21.40
2023-04-22T11:31:31.493Z,21.40
2023-04-22T11:34:01.675Z,21.50
2023-04-22T11:36:30.280Z,21.50
2023-04-22T11:38:58.781Z,21.60
2023-04-22T11:41:29.937Z,21.60
2023-04-22T11:43:58.195Z,21.60
2023-04-22T11:46:31.407Z,21.70
2023-04-22T11:49:15.460Z,21.80
2023-04-22T11:52:12.660Z,21.80
2023-04-22T11:54:41.268Z,21.90
2023-04-22T11:57:14.111Z,21.80
2023-04-22T11:59:42.542Z,21.90
2023-04-22T12:02:11.345Z,21.90
2023-04-22T12:04:42.415Z,22.10
2023-04-22T12:07:10.732Z,22.20
2023-04-22T12:09:41.047Z,22.30
2023-04-22T12:12:09.654Z,22.30
2023-04-22T12:14:38.269Z,22.40
2023-04-22T12:17:10.546Z,22.50
2023-04-22T12:19:39.291Z,22.50
2023-04-22T12:22:09.205Z,22.60
2023-04-22T12:24:37.547Z,22.50
2023-04-22T12:27:05.798Z,22.60
2023-04-22T12:29:35.675Z,22.60
2023-04-22T12:32:03.975Z,22.50
2023-04-22T12:34:32.238Z,22.40
2023-04-22T12:37:00.821Z,22.40
2023-04-22T12:39:30.691Z,22.50
2023-04-22T12:41:58.974Z,22.50
2023-04-22T12:44:27.290Z,22.50
2023-04-22T12:46:55.554Z,22.40
2023-04-22T12:49:24.084Z,22.50
2023-04-22T12:51:52.421Z,22.60
2023-04-22T12:54:21.593Z,22.70
2023-04-22T12:56:52.078Z,22.80
2023-04-22T12:59:21.065Z,22.80
2023-04-22T13:01:49.432Z,22.80
2023-04-22T13:04:20.441Z,22.60
2023-04-22T13:06:50.539Z,22.50
2023-04-22T13:09:18.814Z,22.60
2023-04-22T13:11:49.183Z,22.60
2023-04-22T13:14:19.934Z,22.60
2023-04-22T13:16:48.258Z,22.60
2023-04-22T13:19:16.594Z,22.60
2023-04-22T13:21:45.043Z,22.60
2023-04-22T13:24:13.315Z,22.60
2023-04-22T13:26:41.547Z,22.50
2023-04-22T13:29:13.962Z,22.40
2023-04-22T13:31:44.788Z,22.40
2023-04-22T13:34:14.295Z,22.50
2023-04-22T13:36:42.596Z,22.50
2023-04-22T13:39:11.386Z,22.70
2023-04-22T13:41:39.588Z,22.70
2023-04-22T13:44:08.910Z,22.70
2023-04-22T13:46:38.192Z,22.80
2023-04-22T13:49:11.727Z,22.70
2023-04-22T13:51:40.431Z,22.60
2023-04-22T13:54:09.135Z,22.60
2023-04-22T13:56:37.463Z,22.60
2023-04-22T13:59:05.878Z,22.70
2023-04-22T14:01:34.369Z,22.70
2023-04-22T14:04:02.807Z,22.70
2023-04-22T14:06:32.586Z,22.70
2023-04-22T14:09:01.160Z,22.50
2023-04-22T14:11:29.381Z,22.40
2023-04-22T14:13:57.675Z,22.30
2023-04-22T14:16:26.037Z,22.30
2023-04-22T14:18:55.805Z,22.30
2023-04-22T14:21:26.538Z,22.30
2023-04-22T14:23:57.018Z,22.20
2023-04-22T14:26:25.294Z,22.20
2023-04-22T14:28:53.717Z,22.10
2023-04-22T14:31:24.175Z,22.10
2023-04-22T14:33:52.729Z,22.20
2023-04-22T14:36:21.005Z,22.30
2023-04-22T14:38:49.346Z,22.40
2023-04-22T14:41:18.982Z,22.50
2023-04-22T14:43:47.854Z,22.50
2023-04-22T14:46:16.174Z,22.50
2023-04-22T14:48:44.781Z,22.60
2023-04-22T14:51:13.117Z,22.70
2023-04-22T14:53:41.598Z,22.70
2023-04-22T14:56:11.727Z,22.60
2023-04-22T14:58:41.257Z,22.60
2023-04-22T15:01:09.639Z,22.60
2023-04-22T15:03:38.248Z,22.60
2023-04-22T15:06:06.930Z,22.60
2023-04-22T15:08:35.296Z,22.60
2023-04-22T15:11:03.494Z,22.70
2023-04-22T15:13:31.762Z,22.70
2023-04-22T15:16:01.334Z,22.80
2023-04-22T15:18:29.936Z,22.80
2023-04-22T15:20:58.253Z,22.80
2023-04-22T15:23:26.510Z,22.70
2023-04-22T15:25:55.414Z,22.70
2023-04-22T15:28:24.361Z,22.90
2023-04-22T15:30:52.636Z,23.00
2023-04-22T15:33:22.285Z,23.00
2023-04-22T15:35:50.565Z,23.00
2023-04-22T15:38:18.982Z,23.00
2023-04-22T15:40:47.185Z,23.00
2023-04-22T15:43:15.403Z,22.90
2023-04-22T15:45:43.652Z,22.80
2023-04-22T15:48:11.900Z,22.80
2023-04-22T15:50:41.710Z,22.70
2023-04-22T15:53:09.990Z,22.70
2023-04-22T15:55:38.428Z,22.70
2023-04-22T15:58:06.692Z,22.60
2023-04-22T16:00:35.445Z,22.50
2023-04-22T16:03:04.132Z,22.50
2023-04-22T16:05:34.582Z,22.40
2023-04-22T16:08:04.224Z,22.40
2023-04-22T16:10:32.508Z,22.40
2023-04-22T16:13:00.939Z,22.30
2023-04-22T16:15:29.279Z,22.30
2023-04-22T16:17:57.979Z,22.30
2023-04-22T16:20:26.378Z,22.40
2023-04-22T16:22:54.690Z,22.30
2023-04-22T16:25:24.336Z,22.40
2023-04-22T16:27:52.751Z,22.40
2023-04-22T16:30:21.042Z,22.30
2023-04-22T16:32:50.594Z,22.30
2023-04-22T16:35:18.911Z,22.30
2023-04-22T16:37:47.256Z,22.30
2023-04-22T16:40:15.719Z,22.20
2023-04-22T16:42:45.367Z,22.20
2023-04-22T16:45:13.648Z,22.20
2023-04-22T16:47:41.877Z,22.10
2023-04-22T16:50:12.219Z,22.10
2023-04-22T16:52:40.679Z,22.10
2023-04-22T16:55:09.805Z,22.10
2023-04-22T16:57:38.060Z,22.10
2023-04-22T17:00:09.835Z,22.10
2023-04-22T17:02:38.180Z,22.10
2023-04-22T17:05:07.684Z,22.00
2023-04-22T17:07:36.028Z,22.00
2023-04-22T17:10:04.679Z,21.90
2023-04-22T17:12:33.011Z,21.90
2023-04-22T17:15:01.432Z,21.80
2023-04-22T17:17:31.367Z,21.80
2023-04-22T17:19:59.722Z,21.70
2023-04-22T17:22:28.483Z,21.60
2023-04-22T17:24:58.630Z,21.60
2023-04-22T17:27:26.992Z,21.60
2023-04-22T17:29:55.188Z,21.60
2023-04-22T17:32:23.494Z,21.50
2023-04-22T17:34:53.156Z,21.50
2023-04-22T17:37:21.394Z,21.40
2023-04-22T17:39:49.574Z,21.40
2023-04-22T17:42:18.857Z,21.30
2023-04-22T17:44:47.116Z,21.30
2023-04-22T17:47:15.465Z,21.30
2023-04-22T17:49:43.909Z,21.20
2023-04-22T17:52:13.796Z,21.10
2023-04-22T17:54:43.493Z,21.10
2023-04-22T17:57:12.195Z,20.90
2023-04-22T17:59:40.660Z,21.00
2023-04-22T18:02:11.689Z,20.90
2023-04-22T18:04:39.916Z,20.80
2023-04-22T18:07:08.370Z,20.80
2023-04-22T18:09:37.949Z,20.70
2023-04-22T18:12:07.102Z,20.70
2023-04-22T18:14:35.429Z,20.60
2023-04-22T18:17:03.987Z,20.50
2023-04-22T18:19:32.541Z,20.60
2023-04-22T18:22:01.352Z,20.50
2023-04-22T18:24:29.617Z,20.50
2023-04-22T18:26:59.272Z,20.60
2023-04-22T18:29:27.878Z,20.50
2023-04-22T18:31:57.519Z,20.50
2023-04-22T18:34:26.366Z,20.40
2023-04-22T18:36:54.571Z,20.40
2023-04-22T18:39:22.770Z,20.30
2023-04-22T18:41:51.109Z,20.30
2023-04-22T18:44:21.479Z,20.20
2023-04-22T18:46:50.327Z,20.20
2023-04-22T18:49:18.624Z,20.20
2023-04-22T18:51:49.123Z,20.10
2023-04-22T18:54:17.690Z,20.10
2023-04-22T18:56:46.131Z,20.10
2023-04-22T18:59:14.516Z,20.00
2023-04-22T19:01:44.238Z,20.00
2023-04-22T19:04:12.929Z,20.10
2023-04-22T19:06:41.398Z,20.10
2023-04-22T19:09:09.787Z,20.00
2023-04-22T19:11:38.109Z,20.00
2023-04-22T19:14:06.478Z,20.00
2023-04-22T19:16:35.516Z,19.90
2023-04-22T19:19:05.095Z,19.90
2023-04-22T19:21:33.706Z,19.80
2023-04-22T19:24:01.957Z,19.80
2023-04-22T19:26:31.047Z,19.80
2023-04-22T19:28:59.586Z,19.70
2023-04-22T19:31:29.696Z,19.70
2023-04-22T19:33:58.137Z,19.80
2023-04-22T19:36:28.203Z,19.70
2023-04-22T19:38:56.444Z,19.60
2023-04-22T19:41:25.001Z,19.60
2023-04-22T19:43:55.343Z,19.50
2023-04-22T19:46:23.551Z,19.50
2023-04-22T19:48:52.744Z,19.40
2023-04-22T19:51:22.409Z,19.40
2023-04-22T19:53:54.492Z,19.60
2023-04-22T19:56:23.442Z,19.40
2023-04-22T19:58:52.881Z,19.40
2023-04-22T20:01:21.661Z,19.40
2023-04-22T20:03:50.883Z,19.30
2023-04-22T20:06:22.745Z,19.20
2023-04-22T20:08:54.225Z,19.10
2023-04-22T20:11:23.194Z,18.90
2023-04-22T20:13:52.077Z,18.90
2023-04-22T20:16:23.263Z,18.80
2023-04-22T20:18:52.322Z,18.70
2023-04-22T20:21:21.123Z,18.50
2023-04-22T20:23:55.146Z,18.50
2023-04-22T20:26:24.227Z,18.40
2023-04-22T20:28:53.938Z,18.40
2023-04-22T20:31:23.805Z,18.30
2023-04-22T20:33:52.526Z,18.20
2023-04-22T20:36:22.203Z,18.20
2023-04-22T20:38:54.717Z,18.10
2023-04-22T20:41:25.628Z,18.00
2023-04-22T20:43:53.921Z,17.90
2023-04-22T20:46:23.115Z,17.80
2023-04-22T20:48:51.686Z,17.80
2023-04-22T20:51:20.017Z,17.70
2023-04-22T20:53:48.326Z,17.70
2023-04-22T20:56:17.982Z,17.70
2023-04-22T20:58:46.338Z,17.70
2023-04-22T21:01:16.298Z,17.70
2023-04-22T21:03:51.731Z,17.60
2023-04-22T21:06:21.946Z,17.60
2023-04-22T21:08:51.336Z,17.50
2023-04-22T21:11:21.786Z,17.50
2023-04-22T21:13:51.289Z,17.50
2023-04-22T21:16:23.913Z,17.50
2023-04-22T21:18:55.872Z,17.40
2023-04-22T21:21:31.027Z,17.50
2023-04-22T21:24:02.058Z,17.50
2023-04-22T21:26:33.951Z,17.40
2023-04-22T21:29:02.713Z,17.40
2023-04-22T21:31:31.231Z,17.40
2023-04-22T21:34:00.461Z,17.40
2023-04-22T21:36:28.807Z,17.40
2023-04-22T21:38:58.443Z,17.40
2023-04-22T21:41:26.724Z,17.40
2023-04-22T21:43:56.357Z,17.30
2023-04-22T21:46:24.637Z,17.30
2023-04-22T21:48:53.502Z,17.30
2023-04-22T21:51:21.987Z,17.30
2023-04-22T21:53:50.561Z,17.20
2023-04-22T21:56:19.153Z,17.30
2023-04-22T21:58:47.562Z,17.20
2023-04-22T22:01:17.208Z,17.20
2023-04-22T22:03:46.490Z,17.20
2023-04-22T22:06:14.927Z,17.10
2023-04-22T22:08:44.926Z,17.00
2023-04-22T22:11:27.562Z,17.00
2023-04-22T22:13:58.550Z,17.00
2023-04-22T22:16:28.403Z,16.90
2023-04-22T22:18:58.203Z,16.90
2023-04-22T22:21:26.493Z,16.80
2023-04-22T22:23:55.032Z,16.80
2023-04-22T22:26:23.288Z,16.80
2023-04-22T22:28:51.534Z,16.80
2023-04-22T22:31:19.851Z,16.80
2023-04-22T22:33:49.462Z,16.80
2023-04-22T22:36:17.762Z,16.80
2023-04-22T22:38:46.127Z,16.70
2023-04-22T22:41:14.357Z,16.70
2023-04-22T22:43:42.541Z,16.60
2023-04-22T22:46:10.801Z,16.60
2023-04-22T22:48:39.682Z,16.60
2023-04-22T22:51:09.409Z,16.60
2023-04-22T22:53:37.785Z,16.60
2023-04-22T22:56:06.619Z,16.50
2023-04-22T22:58:36.139Z,16.50
2023-04-22T23:01:05.054Z,16.50
2023-04-22T23:03:33.558Z,16.40
2023-04-22T23:06:01.977Z,16.40
2023-04-22T23:08:31.574Z,16.40
2023-04-22T23:11:00.653Z,16.40
2023-04-22T23:13:28.988Z,16.40
2023-04-22T23:15:57.418Z,16.30
2023-04-22T23:18:27.433Z,16.20
2023-04-22T23:20:57.223Z,16.20
2023-04-22T23:23:26.057Z,16.20
2023-04-22T23:25:56.916Z,16.20
2023-04-22T23:28:25.950Z,16.30
2023-04-22T23:30:56.809Z,16.20
2023-04-22T23:33:27.010Z,16.40
2023-04-22T23:35:57.494Z,16.20
2023-04-22T23:38:25.740Z,16.20
2023-04-22T23:40:55.430Z,16.20
2023-04-22T23:43:23.632Z,16.30
2023-04-22T23:45:52.012Z,16.30
2023-04-22T23:48:20.298Z,16.30
2023-04-22T23:50:48.566Z,16.30
2023-04-22T23:53:16.752Z,16.30
2023-04-22T23:55:45.673Z,16.30
2023-04-22T23:58:15.814Z,16.20
